sensor_id;sensor_type;location;lat;lon;timestamp;P1;durP1;ratioP1;P2;durP2;ratioP2
84284;SDS011;74441;49.470;11.032;2024-01-30T00:01:42;8.35;;;5.85;;
84284;SDS011;74441;49.470;11.032;2024-01-30T00:04:07;9.90;;;6.40;;
84284;SDS011;74441;49.470;11.032;2024-01-30T00:06:32;9.02;;;5.90;;
84284;SDS011;74441;49.470;11.032;2024-01-30T00:08:58;9.15;;;6.22;;
84284;SDS011;74441;49.470;11.032;2024-01-30T00:11:23;9.43;;;6.05;;
84284;SDS011;74441;49.470;11.032;2024-01-30T00:13:50;8.38;;;6.35;;
84284;SDS011;74441;49.470;11.032;2024-01-30T00:16:22;10.93;;;6.57;;
84284;SDS011;74441;49.470;11.032;2024-01-30T00:18:51;10.05;;;6.22;;
84284;SDS011;74441;49.470;11.032;2024-01-30T00:21:17;10.35;;;6.63;;
84284;SDS011;74441;49.470;11.032;2024-01-30T00:23:42;10.00;;;6.47;;
84284;SDS011;74441;49.470;11.032;2024-01-30T00:26:08;9.85;;;6.38;;
84284;SDS011;74441;49.470;11.032;2024-01-30T00:28:33;9.57;;;6.10;;
84284;SDS011;74441;49.470;11.032;2024-01-30T00:30:58;10.33;;;5.90;;
84284;SDS011;74441;49.470;11.032;2024-01-30T00:33:24;9.70;;;6.35;;
84284;SDS011;74441;49.470;11.032;2024-01-30T00:35:49;8.90;;;6.53;;
84284;SDS011;74441;49.470;11.032;2024-01-30T00:38:15;10.10;;;6.10;;
84284;SDS011;74441;49.470;11.032;2024-01-30T00:40:40;9.63;;;5.95;;
84284;SDS011;74441;49.470;11.032;2024-01-30T00:43:05;10.20;;;6.28;;
84284;SDS011;74441;49.470;11.032;2024-01-30T00:45:31;8.90;;;6.30;;
84284;SDS011;74441;49.470;11.032;2024-01-30T00:47:56;8.70;;;6.17;;
84284;SDS011;74441;49.470;11.032;2024-01-30T00:50:21;9.87;;;6.27;;
84284;SDS011;74441;49.470;11.032;2024-01-30T00:52:47;8.97;;;6.20;;
84284;SDS011;74441;49.470;11.032;2024-01-30T00:55:12;10.02;;;5.82;;
84284;SDS011;74441;49.470;11.032;2024-01-30T00:57:39;9.70;;;6.72;;
84284;SDS011;74441;49.470;11.032;2024-01-30T01:00:04;10.50;;;5.97;;
84284;SDS011;74441;49.470;11.032;2024-01-30T01:02:31;9.43;;;6.15;;
84284;SDS011;74441;49.470;11.032;2024-01-30T01:04:56;9.43;;;6.10;;
84284;SDS011;74441;49.470;11.032;2024-01-30T01:07:22;11.27;;;7.05;;
84284;SDS011;74441;49.470;11.032;2024-01-30T01:09:47;10.32;;;6.43;;
84284;SDS011;74441;49.470;11.032;2024-01-30T01:12:12;11.25;;;7.05;;
84284;SDS011;74441;49.470;11.032;2024-01-30T01:14:38;9.60;;;6.20;;
84284;SDS011;74441;49.470;11.032;2024-01-30T01:17:03;8.20;;;5.80;;
84284;SDS011;74441;49.470;11.032;2024-01-30T01:19:29;9.15;;;5.90;;
84284;SDS011;74441;49.470;11.032;2024-01-30T01:21:54;8.68;;;5.65;;
84284;SDS011;74441;49.470;11.032;2024-01-30T01:24:19;7.33;;;5.70;;
84284;SDS011;74441;49.470;11.032;2024-01-30T01:26:44;9.10;;;5.75;;
84284;SDS011;74441;49.470;11.032;2024-01-30T01:29:10;7.77;;;5.70;;
84284;SDS011;74441;49.470;11.032;2024-01-30T01:31:37;10.07;;;6.63;;
84284;SDS011;74441;49.470;11.032;2024-01-30T01:34:08;8.98;;;6.38;;
84284;SDS011;74441;49.470;11.032;2024-01-30T01:36:34;9.15;;;5.78;;
84284;SDS011;74441;49.470;11.032;2024-01-30T01:38:59;7.97;;;6.33;;
84284;SDS011;74441;49.470;11.032;2024-01-30T01:41:25;8.68;;;5.82;;
84284;SDS011;74441;49.470;11.032;2024-01-30T01:43:50;8.93;;;6.27;;
84284;SDS011;74441;49.470;11.032;2024-01-30T01:46:15;8.90;;;5.80;;
84284;SDS011;74441;49.470;11.032;2024-01-30T01:48:41;8.10;;;5.80;;
84284;SDS011;74441;49.470;11.032;2024-01-30T01:51:08;7.65;;;5.57;;
84284;SDS011;74441;49.470;11.032;2024-01-30T01:53:33;10.35;;;5.95;;
84284;SDS011;74441;49.470;11.032;2024-01-30T01:55:59;9.27;;;5.63;;
84284;SDS011;74441;49.470;11.032;2024-01-30T01:58:24;9.55;;;6.10;;
84284;SDS011;74441;49.470;11.032;2024-01-30T02:00:53;7.10;;;5.40;;
84284;SDS011;74441;49.470;11.032;2024-01-30T02:03:19;7.60;;;5.10;;
84284;SDS011;74441;49.470;11.032;2024-01-30T02:05:46;6.47;;;5.07;;
84284;SDS011;74441;49.470;11.032;2024-01-30T02:08:12;6.90;;;4.78;;
84284;SDS011;74441;49.470;11.032;2024-01-30T02:10:37;8.32;;;5.53;;
84284;SDS011;74441;49.470;11.032;2024-01-30T02:13:02;8.35;;;4.97;;
84284;SDS011;74441;49.470;11.032;2024-01-30T02:15:28;8.30;;;4.85;;
84284;SDS011;74441;49.470;11.032;2024-01-30T02:17:54;8.93;;;5.00;;
84284;SDS011;74441;49.470;11.032;2024-01-30T02:20:19;7.13;;;5.25;;
84284;SDS011;74441;49.470;11.032;2024-01-30T02:22:45;8.90;;;5.25;;
84284;SDS011;74441;49.470;11.032;2024-01-30T02:25:11;7.45;;;5.32;;
84284;SDS011;74441;49.470;11.032;2024-01-30T02:27:36;9.97;;;5.93;;
84284;SDS011;74441;49.470;11.032;2024-01-30T02:30:02;8.85;;;5.45;;
84284;SDS011;74441;49.470;11.032;2024-01-30T02:32:27;8.45;;;5.10;;
84284;SDS011;74441;49.470;11.032;2024-01-30T02:34:52;8.03;;;5.00;;
84284;SDS011;74441;49.470;11.032;2024-01-30T02:37:18;8.57;;;4.93;;
84284;SDS011;74441;49.470;11.032;2024-01-30T02:39:43;6.67;;;4.83;;
84284;SDS011;74441;49.470;11.032;2024-01-30T02:42:08;6.83;;;4.57;;
84284;SDS011;74441;49.470;11.032;2024-01-30T02:44:33;6.40;;;4.73;;
84284;SDS011;74441;49.470;11.032;2024-01-30T02:46:59;6.33;;;4.37;;
84284;SDS011;74441;49.470;11.032;2024-01-30T02:49:24;7.03;;;4.60;;
84284;SDS011;74441;49.470;11.032;2024-01-30T02:51:49;6.57;;;4.50;;
84284;SDS011;74441;49.470;11.032;2024-01-30T02:54:15;7.68;;;4.90;;
84284;SDS011;74441;49.470;11.032;2024-01-30T02:56:41;5.82;;;4.38;;
84284;SDS011;74441;49.470;11.032;2024-01-30T02:59:06;6.40;;;4.10;;
84284;SDS011;74441;49.470;11.032;2024-01-30T03:01:31;6.37;;;4.53;;
84284;SDS011;74441;49.470;11.032;2024-01-30T03:03:57;6.37;;;4.53;;
84284;SDS011;74441;49.470;11.032;2024-01-30T03:06:22;5.90;;;4.30;;
84284;SDS011;74441;49.470;11.032;2024-01-30T03:08:48;5.65;;;4.55;;
84284;SDS011;74441;49.470;11.032;2024-01-30T03:11:13;5.85;;;4.55;;
84284;SDS011;74441;49.470;11.032;2024-01-30T03:13:38;5.57;;;4.60;;
84284;SDS011;74441;49.470;11.032;2024-01-30T03:16:04;6.20;;;4.50;;
84284;SDS011;74441;49.470;11.032;2024-01-30T03:18:29;7.00;;;4.40;;
84284;SDS011;74441;49.470;11.032;2024-01-30T03:20:54;5.77;;;4.57;;
84284;SDS011;74441;49.470;11.032;2024-01-30T03:23:20;7.47;;;5.00;;
84284;SDS011;74441;49.470;11.032;2024-01-30T03:25:45;6.97;;;4.80;;
84284;SDS011;74441;49.470;11.032;2024-01-30T03:28:10;6.40;;;4.50;;
84284;SDS011;74441;49.470;11.032;2024-01-30T03:30:35;6.63;;;4.53;;
84284;SDS011;74441;49.470;11.032;2024-01-30T03:33:01;7.47;;;4.77;;
84284;SDS011;74441;49.470;11.032;2024-01-30T03:35:26;6.70;;;4.38;;
84284;SDS011;74441;49.470;11.032;2024-01-30T03:37:51;6.07;;;4.70;;
84284;SDS011;74441;49.470;11.032;2024-01-30T03:40:17;5.77;;;4.23;;
84284;SDS011;74441;49.470;11.032;2024-01-30T03:42:42;7.55;;;4.68;;
84284;SDS011;74441;49.470;11.032;2024-01-30T03:45:08;6.57;;;4.70;;
84284;SDS011;74441;49.470;11.032;2024-01-30T03:47:33;6.10;;;4.63;;
84284;SDS011;74441;49.470;11.032;2024-01-30T03:49:58;6.77;;;4.50;;
84284;SDS011;74441;49.470;11.032;2024-01-30T03:52:24;6.07;;;4.90;;
84284;SDS011;74441;49.470;11.032;2024-01-30T03:54:49;6.50;;;4.50;;
84284;SDS011;74441;49.470;11.032;2024-01-30T03:57:14;5.75;;;4.50;;
84284;SDS011;74441;49.470;11.032;2024-01-30T03:59:41;5.97;;;4.57;;
84284;SDS011;74441;49.470;11.032;2024-01-30T04:02:07;6.40;;;4.78;;
84284;SDS011;74441;49.470;11.032;2024-01-30T04:04:32;6.57;;;4.80;;
84284;SDS011;74441;49.470;11.032;2024-01-30T04:06:57;7.27;;;5.17;;
84284;SDS011;74441;49.470;11.032;2024-01-30T04:09:23;5.80;;;4.47;;
84284;SDS011;74441;49.470;11.032;2024-01-30T04:11:48;6.07;;;4.80;;
84284;SDS011;74441;49.470;11.032;2024-01-30T04:14:14;8.67;;;4.73;;
84284;SDS011;74441;49.470;11.032;2024-01-30T04:16:39;6.47;;;5.03;;
84284;SDS011;74441;49.470;11.032;2024-01-30T04:19:04;6.83;;;4.77;;
84284;SDS011;74441;49.470;11.032;2024-01-30T04:21:30;6.20;;;4.80;;
84284;SDS011;74441;49.470;11.032;2024-01-30T04:23:55;8.48;;;4.70;;
84284;SDS011;74441;49.470;11.032;2024-01-30T04:26:20;7.17;;;4.90;;
84284;SDS011;74441;49.470;11.032;2024-01-30T04:28:45;7.30;;;5.00;;
84284;SDS011;74441;49.470;11.032;2024-01-30T04:31:11;5.72;;;4.60;;
84284;SDS011;74441;49.470;11.032;2024-01-30T04:33:36;7.78;;;5.63;;
84284;SDS011;74441;49.470;11.032;2024-01-30T04:36:02;9.10;;;5.55;;
84284;SDS011;74441;49.470;11.032;2024-01-30T04:38:28;7.82;;;5.55;;
84284;SDS011;74441;49.470;11.032;2024-01-30T04:40:56;7.43;;;5.22;;
84284;SDS011;74441;49.470;11.032;2024-01-30T04:43:21;7.78;;;5.47;;
84284;SDS011;74441;49.470;11.032;2024-01-30T04:45:47;8.63;;;5.50;;
84284;SDS011;74441;49.470;11.032;2024-01-30T04:48:12;8.15;;;5.47;;
84284;SDS011;74441;49.470;11.032;2024-01-30T04:50:37;8.07;;;5.60;;
84284;SDS011;74441;49.470;11.032;2024-01-30T04:53:03;7.77;;;5.67;;
84284;SDS011;74441;49.470;11.032;2024-01-30T04:55:28;7.95;;;5.22;;
84284;SDS011;74441;49.470;11.032;2024-01-30T04:57:53;7.47;;;5.47;;
84284;SDS011;74441;49.470;11.032;2024-01-30T05:00:18;7.87;;;5.43;;
84284;SDS011;74441;49.470;11.032;2024-01-30T05:02:44;7.45;;;5.32;;
84284;SDS011;74441;49.470;11.032;2024-01-30T05:05:09;7.30;;;5.57;;
84284;SDS011;74441;49.470;11.032;2024-01-30T05:07:35;7.57;;;5.18;;
84284;SDS011;74441;49.470;11.032;2024-01-30T05:10:01;6.80;;;5.00;;
84284;SDS011;74441;49.470;11.032;2024-01-30T05:12:26;7.25;;;5.50;;
84284;SDS011;74441;49.470;11.032;2024-01-30T05:14:52;7.57;;;5.47;;
84284;SDS011;74441;49.470;11.032;2024-01-30T05:17:17;6.63;;;4.80;;
84284;SDS011;74441;49.470;11.032;2024-01-30T05:19:43;7.55;;;4.90;;
84284;SDS011;74441;49.470;11.032;2024-01-30T05:22:08;7.97;;;5.55;;
84284;SDS011;74441;49.470;11.032;2024-01-30T05:24:34;6.90;;;5.32;;
84284;SDS011;74441;49.470;11.032;2024-01-30T05:26:59;6.60;;;4.93;;
84284;SDS011;74441;49.470;11.032;2024-01-30T05:29:24;7.57;;;5.30;;
84284;SDS011;74441;49.470;11.032;2024-01-30T05:31:49;8.87;;;5.50;;
84284;SDS011;74441;49.470;11.032;2024-01-30T05:34:15;8.63;;;6.10;;
84284;SDS011;74441;49.470;11.032;2024-01-30T05:36:41;7.57;;;5.28;;
84284;SDS011;74441;49.470;11.032;2024-01-30T05:39:06;6.63;;;5.10;;
84284;SDS011;74441;49.470;11.032;2024-01-30T05:41:32;10.27;;;5.40;;
84284;SDS011;74441;49.470;11.032;2024-01-30T05:43:57;7.33;;;5.20;;
84284;SDS011;74441;49.470;11.032;2024-01-30T05:46:22;7.17;;;5.43;;
84284;SDS011;74441;49.470;11.032;2024-01-30T05:48:48;9.13;;;6.17;;
84284;SDS011;74441;49.470;11.032;2024-01-30T05:51:13;8.85;;;6.38;;
84284;SDS011;74441;49.470;11.032;2024-01-30T05:53:38;8.52;;;5.63;;
84284;SDS011;74441;49.470;11.032;2024-01-30T05:56:04;7.45;;;5.63;;
84284;SDS011;74441;49.470;11.032;2024-01-30T05:58:30;7.22;;;5.50;;
84284;SDS011;74441;49.470;11.032;2024-01-30T06:00:58;7.60;;;5.30;;
84284;SDS011;74441;49.470;11.032;2024-01-30T06:03:23;6.67;;;5.80;;
84284;SDS011;74441;49.470;11.032;2024-01-30T06:05:49;7.47;;;5.30;;
84284;SDS011;74441;49.470;11.032;2024-01-30T06:08:14;7.27;;;5.73;;
84284;SDS011;74441;49.470;11.032;2024-01-30T06:10:39;7.07;;;5.40;;
84284;SDS011;74441;49.470;11.032;2024-01-30T06:13:05;6.85;;;5.75;;
84284;SDS011;74441;49.470;11.032;2024-01-30T06:15:30;8.50;;;5.80;;
84284;SDS011;74441;49.470;11.032;2024-01-30T06:17:57;7.97;;;5.45;;
84284;SDS011;74441;49.470;11.032;2024-01-30T06:20:22;8.30;;;5.82;;
84284;SDS011;74441;49.470;11.032;2024-01-30T06:22:48;10.10;;;6.50;;
84284;SDS011;74441;49.470;11.032;2024-01-30T06:25:13;9.80;;;6.10;;
84284;SDS011;74441;49.470;11.032;2024-01-30T06:27:38;7.80;;;5.57;;
84284;SDS011;74441;49.470;11.032;2024-01-30T06:30:04;7.40;;;5.50;;
84284;SDS011;74441;49.470;11.032;2024-01-30T06:32:30;8.57;;;6.10;;
84284;SDS011;74441;49.470;11.032;2024-01-30T06:34:59;7.70;;;5.82;;
84284;SDS011;74441;49.470;11.032;2024-01-30T06:37:24;8.70;;;5.97;;
84284;SDS011;74441;49.470;11.032;2024-01-30T06:39:50;7.68;;;6.38;;
84284;SDS011;74441;49.470;11.032;2024-01-30T06:42:15;8.93;;;6.67;;
84284;SDS011;74441;49.470;11.032;2024-01-30T06:44:41;8.15;;;5.78;;
84284;SDS011;74441;49.470;11.032;2024-01-30T06:47:06;9.55;;;6.90;;
84284;SDS011;74441;49.470;11.032;2024-01-30T06:49:31;9.13;;;6.40;;
84284;SDS011;74441;49.470;11.032;2024-01-30T06:51:56;9.85;;;6.50;;
84284;SDS011;74441;49.470;11.032;2024-01-30T06:54:22;9.83;;;6.57;;
84284;SDS011;74441;49.470;11.032;2024-01-30T06:56:47;10.20;;;6.50;;
84284;SDS011;74441;49.470;11.032;2024-01-30T06:59:12;9.13;;;6.30;;
84284;SDS011;74441;49.470;11.032;2024-01-30T07:01:38;10.67;;;6.90;;
84284;SDS011;74441;49.470;11.032;2024-01-30T07:04:03;10.63;;;7.05;;
84284;SDS011;74441;49.470;11.032;2024-01-30T07:06:28;8.60;;;6.22;;
84284;SDS011;74441;49.470;11.032;2024-01-30T07:08:54;8.13;;;6.30;;
84284;SDS011;74441;49.470;11.032;2024-01-30T07:11:19;8.80;;;6.73;;
84284;SDS011;74441;49.470;11.032;2024-01-30T07:13:47;9.07;;;6.53;;
84284;SDS011;74441;49.470;11.032;2024-01-30T07:16:13;11.93;;;7.35;;
84284;SDS011;74441;49.470;11.032;2024-01-30T07:18:38;9.07;;;6.93;;
84284;SDS011;74441;49.470;11.032;2024-01-30T07:21:04;9.93;;;6.70;;
84284;SDS011;74441;49.470;11.032;2024-01-30T07:23:29;10.80;;;7.70;;
84284;SDS011;74441;49.470;11.032;2024-01-30T07:25:55;9.40;;;6.78;;
84284;SDS011;74441;49.470;11.032;2024-01-30T07:28:20;10.60;;;7.50;;
84284;SDS011;74441;49.470;11.032;2024-01-30T07:30:45;9.47;;;7.33;;
84284;SDS011;74441;49.470;11.032;2024-01-30T07:33:12;9.60;;;6.80;;
84284;SDS011;74441;49.470;11.032;2024-01-30T07:35:37;8.98;;;7.07;;
84284;SDS011;74441;49.470;11.032;2024-01-30T07:38:03;9.57;;;7.07;;
84284;SDS011;74441;49.470;11.032;2024-01-30T07:40:28;9.63;;;7.10;;
84284;SDS011;74441;49.470;11.032;2024-01-30T07:42:54;10.15;;;7.68;;
84284;SDS011;74441;49.470;11.032;2024-01-30T07:45:19;10.07;;;7.25;;
84284;SDS011;74441;49.470;11.032;2024-01-30T07:47:49;10.57;;;7.55;;
84284;SDS011;74441;49.470;11.032;2024-01-30T07:50:15;10.30;;;7.47;;
84284;SDS011;74441;49.470;11.032;2024-01-30T07:52:41;11.10;;;7.67;;
84284;SDS011;74441;49.470;11.032;2024-01-30T07:55:06;10.00;;;7.85;;
84284;SDS011;74441;49.470;11.032;2024-01-30T07:57:33;11.63;;;8.13;;
84284;SDS011;74441;49.470;11.032;2024-01-30T07:59:59;11.20;;;8.52;;
84284;SDS011;74441;49.470;11.032;2024-01-30T08:02:24;9.43;;;7.63;;
84284;SDS011;74441;49.470;11.032;2024-01-30T08:04:49;14.10;;;8.00;;
84284;SDS011;74441;49.470;11.032;2024-01-30T08:07:15;10.98;;;8.13;;
84284;SDS011;74441;49.470;11.032;2024-01-30T08:09:40;14.43;;;8.73;;
84284;SDS011;74441;49.470;11.032;2024-01-30T08:12:06;10.93;;;8.18;;
84284;SDS011;74441;49.470;11.032;2024-01-30T08:14:31;11.25;;;8.68;;
84284;SDS011;74441;49.470;11.032;2024-01-30T08:16:56;10.77;;;7.80;;
84284;SDS011;74441;49.470;11.032;2024-01-30T08:19:22;11.67;;;8.33;;
84284;SDS011;74441;49.470;11.032;2024-01-30T08:21:47;10.70;;;8.43;;
84284;SDS011;74441;49.470;11.032;2024-01-30T08:24:12;11.07;;;9.13;;
84284;SDS011;74441;49.470;11.032;2024-01-30T08:26:38;10.97;;;8.67;;
84284;SDS011;74441;49.470;11.032;2024-01-30T08:29:03;11.02;;;8.90;;
84284;SDS011;74441;49.470;11.032;2024-01-30T08:31:29;12.70;;;9.05;;
84284;SDS011;74441;49.470;11.032;2024-01-30T08:33:54;11.25;;;9.00;;
84284;SDS011;74441;49.470;11.032;2024-01-30T08:36:19;12.02;;;8.77;;
84284;SDS011;74441;49.470;11.032;2024-01-30T08:38:45;11.95;;;9.13;;
84284;SDS011;74441;49.470;11.032;2024-01-30T08:41:10;11.83;;;8.47;;
84284;SDS011;74441;49.470;11.032;2024-01-30T08:43:35;12.57;;;8.77;;
84284;SDS011;74441;49.470;11.032;2024-01-30T08:46:01;10.50;;;8.90;;
84284;SDS011;74441;49.470;11.032;2024-01-30T08:48:27;11.82;;;8.70;;
84284;SDS011;74441;49.470;11.032;2024-01-30T08:50:52;10.43;;;8.60;;
84284;SDS011;74441;49.470;11.032;2024-01-30T08:53:18;12.90;;;8.93;;
84284;SDS011;74441;49.470;11.032;2024-01-30T08:55:43;12.02;;;8.85;;
84284;SDS011;74441;49.470;11.032;2024-01-30T08:58:09;10.75;;;8.65;;
84284;SDS011;74441;49.470;11.032;2024-01-30T09:00:34;12.73;;;9.03;;
84284;SDS011;74441;49.470;11.032;2024-01-30T09:02:59;13.27;;;9.00;;
84284;SDS011;74441;49.470;11.032;2024-01-30T09:05:25;10.73;;;8.63;;
84284;SDS011;74441;49.470;11.032;2024-01-30T09:07:50;11.33;;;8.73;;
84284;SDS011;74441;49.470;11.032;2024-01-30T09:10:15;11.52;;;8.43;;
84284;SDS011;74441;49.470;11.032;2024-01-30T09:12:41;11.45;;;8.90;;
84284;SDS011;74441;49.470;11.032;2024-01-30T09:15:06;12.55;;;9.75;;
84284;SDS011;74441;49.470;11.032;2024-01-30T09:17:32;11.43;;;9.07;;
84284;SDS011;74441;49.470;11.032;2024-01-30T09:19:58;10.65;;;8.38;;
84284;SDS011;74441;49.470;11.032;2024-01-30T09:22:23;11.63;;;8.63;;
84284;SDS011;74441;49.470;11.032;2024-01-30T09:24:48;10.13;;;8.73;;
84284;SDS011;74441;49.470;11.032;2024-01-30T09:27:14;10.88;;;8.80;;
84284;SDS011;74441;49.470;11.032;2024-01-30T09:29:39;11.53;;;9.10;;
84284;SDS011;74441;49.470;11.032;2024-01-30T09:32:05;11.45;;;8.88;;
84284;SDS011;74441;49.470;11.032;2024-01-30T09:34:31;12.05;;;8.93;;
84284;SDS011;74441;49.470;11.032;2024-01-30T09:36:56;10.95;;;8.38;;
84284;SDS011;74441;49.470;11.032;2024-01-30T09:39:22;12.27;;;9.10;;
84284;SDS011;74441;49.470;11.032;2024-01-30T09:44:30;11.68;;;9.07;;
84284;SDS011;74441;49.470;11.032;2024-01-30T09:46:55;15.80;;;9.18;;
84284;SDS011;74441;49.470;11.032;2024-01-30T09:49:23;11.77;;;9.10;;
84284;SDS011;74441;49.470;11.032;2024-01-30T09:51:49;13.55;;;9.45;;
84284;SDS011;74441;49.470;11.032;2024-01-30T09:54:15;10.93;;;8.65;;
84284;SDS011;74441;49.470;11.032;2024-01-30T09:56:40;12.80;;;9.48;;
84284;SDS011;74441;49.470;11.032;2024-01-30T09:59:06;11.50;;;8.60;;
84284;SDS011;74441;49.470;11.032;2024-01-30T10:01:34;12.02;;;9.00;;
84284;SDS011;74441;49.470;11.032;2024-01-30T10:03:59;10.45;;;8.25;;
84284;SDS011;74441;49.470;11.032;2024-01-30T10:06:25;10.93;;;8.93;;
84284;SDS011;74441;49.470;11.032;2024-01-30T10:08:50;9.35;;;8.20;;
84284;SDS011;74441;49.470;11.032;2024-01-30T10:11:16;12.48;;;8.52;;
84284;SDS011;74441;49.470;11.032;2024-01-30T10:13:41;11.55;;;8.80;;
84284;SDS011;74441;49.470;11.032;2024-01-30T10:16:06;11.20;;;9.05;;
84284;SDS011;74441;49.470;11.032;2024-01-30T10:18:32;11.27;;;9.27;;
84284;SDS011;74441;49.470;11.032;2024-01-30T10:20:58;12.63;;;9.02;;
84284;SDS011;74441;49.470;11.032;2024-01-30T10:23:24;11.18;;;8.85;;
84284;SDS011;74441;49.470;11.032;2024-01-30T10:25:50;13.85;;;8.77;;
84284;SDS011;74441;49.470;11.032;2024-01-30T10:28:16;12.43;;;8.77;;
84284;SDS011;74441;49.470;11.032;2024-01-30T10:30:42;11.33;;;8.17;;
84284;SDS011;74441;49.470;11.032;2024-01-30T10:33:07;12.13;;;9.02;;
84284;SDS011;74441;49.470;11.032;2024-01-30T10:35:32;11.23;;;9.00;;
84284;SDS011;74441;49.470;11.032;2024-01-30T10:37:58;9.88;;;8.00;;
84284;SDS011;74441;49.470;11.032;2024-01-30T10:40:25;11.32;;;8.40;;
84284;SDS011;74441;49.470;11.032;2024-01-30T10:45:20;13.10;;;8.23;;
84284;SDS011;74441;49.470;11.032;2024-01-30T10:47:48;10.55;;;8.40;;
84284;SDS011;74441;49.470;11.032;2024-01-30T10:50:14;10.38;;;8.57;;
84284;SDS011;74441;49.470;11.032;2024-01-30T10:52:40;12.00;;;9.50;;
84284;SDS011;74441;49.470;11.032;2024-01-30T10:55:07;13.52;;;8.73;;
84284;SDS011;74441;49.470;11.032;2024-01-30T10:57:34;10.98;;;8.80;;
84284;SDS011;74441;49.470;11.032;2024-01-30T11:00:00;11.27;;;8.90;;
84284;SDS011;74441;49.470;11.032;2024-01-30T11:02:30;11.48;;;8.27;;
84284;SDS011;74441;49.470;11.032;2024-01-30T11:04:57;12.43;;;8.40;;
84284;SDS011;74441;49.470;11.032;2024-01-30T11:07:24;9.70;;;8.27;;
84284;SDS011;74441;49.470;11.032;2024-01-30T11:09:50;11.20;;;8.50;;
84284;SDS011;74441;49.470;11.032;2024-01-30T11:12:16;12.52;;;9.32;;
84284;SDS011;74441;49.470;11.032;2024-01-30T11:14:46;11.25;;;8.20;;
84284;SDS011;74441;49.470;11.032;2024-01-30T11:17:12;11.50;;;8.80;;
84284;SDS011;74441;49.470;11.032;2024-01-30T11:19:37;12.75;;;8.15;;
84284;SDS011;74441;49.470;11.032;2024-01-30T11:22:03;11.57;;;8.38;;
84284;SDS011;74441;49.470;11.032;2024-01-30T11:24:29;10.98;;;8.90;;
84284;SDS011;74441;49.470;11.032;2024-01-30T11:26:55;11.00;;;8.35;;
84284;SDS011;74441;49.470;11.032;2024-01-30T11:29:24;9.68;;;8.15;;
84284;SDS011;74441;49.470;11.032;2024-01-30T11:31:56;10.20;;;8.15;;
84284;SDS011;74441;49.470;11.032;2024-01-30T11:34:22;10.20;;;8.43;;
84284;SDS011;74441;49.470;11.032;2024-01-30T11:37:02;11.55;;;8.38;;
84284;SDS011;74441;49.470;11.032;2024-01-30T11:39:31;11.27;;;7.93;;
84284;SDS011;74441;49.470;11.032;2024-01-30T11:44:23;10.35;;;8.45;;
84284;SDS011;74441;49.470;11.032;2024-01-30T11:46:49;11.80;;;8.40;;
84284;SDS011;74441;49.470;11.032;2024-01-30T11:49:15;10.63;;;8.13;;
84284;SDS011;74441;49.470;11.032;2024-01-30T11:51:41;11.20;;;7.97;;
84284;SDS011;74441;49.470;11.032;2024-01-30T11:54:07;10.13;;;7.93;;
84284;SDS011;74441;49.470;11.032;2024-01-30T11:56:32;11.52;;;8.38;;
84284;SDS011;74441;49.470;11.032;2024-01-30T11:58:58;10.05;;;7.82;;
84284;SDS011;74441;49.470;11.032;2024-01-30T12:01:25;9.90;;;8.10;;
84284;SDS011;74441;49.470;11.032;2024-01-30T12:03:51;11.90;;;8.68;;
84284;SDS011;74441;49.470;11.032;2024-01-30T12:06:17;10.48;;;8.45;;
84284;SDS011;74441;49.470;11.032;2024-01-30T12:08:42;10.02;;;8.93;;
84284;SDS011;74441;49.470;11.032;2024-01-30T12:11:08;13.77;;;9.05;;
84284;SDS011;74441;49.470;11.032;2024-01-30T12:13:33;12.23;;;8.18;;
84284;SDS011;74441;49.470;11.032;2024-01-30T12:15:59;10.80;;;7.97;;
84284;SDS011;74441;49.470;11.032;2024-01-30T12:18:25;10.88;;;7.75;;
84284;SDS011;74441;49.470;11.032;2024-01-30T12:21:00;10.20;;;7.95;;
84284;SDS011;74441;49.470;11.032;2024-01-30T12:23:28;11.23;;;8.50;;
84284;SDS011;74441;49.470;11.032;2024-01-30T12:25:54;10.68;;;8.80;;
84284;SDS011;74441;49.470;11.032;2024-01-30T12:28:20;10.57;;;8.63;;
84284;SDS011;74441;49.470;11.032;2024-01-30T12:30:45;10.68;;;7.95;;
84284;SDS011;74441;49.470;11.032;2024-01-30T12:33:15;10.20;;;8.70;;
84284;SDS011;74441;49.470;11.032;2024-01-30T12:35:45;10.85;;;8.20;;
84284;SDS011;74441;49.470;11.032;2024-01-30T12:38:10;12.45;;;8.82;;
84284;SDS011;74441;49.470;11.032;2024-01-30T12:40:36;12.80;;;8.23;;
84284;SDS011;74441;49.470;11.032;2024-01-30T12:43:01;10.00;;;8.02;;
84284;SDS011;74441;49.470;11.032;2024-01-30T12:45:27;10.82;;;7.85;;
84284;SDS011;74441;49.470;11.032;2024-01-30T12:47:53;11.30;;;7.63;;
84284;SDS011;74441;49.470;11.032;2024-01-30T12:50:18;9.77;;;7.82;;
84284;SDS011;74441;49.470;11.032;2024-01-30T12:52:44;12.20;;;8.48;;
84284;SDS011;74441;49.470;11.032;2024-01-30T12:55:09;10.63;;;7.93;;
84284;SDS011;74441;49.470;11.032;2024-01-30T12:57:35;10.57;;;7.78;;
84284;SDS011;74441;49.470;11.032;2024-01-30T13:00:00;11.30;;;8.05;;
84284;SDS011;74441;49.470;11.032;2024-01-30T13:02:25;10.00;;;8.23;;
84284;SDS011;74441;49.470;11.032;2024-01-30T13:04:53;11.35;;;7.60;;
84284;SDS011;74441;49.470;11.032;2024-01-30T13:07:19;12.00;;;7.75;;
84284;SDS011;74441;49.470;11.032;2024-01-30T13:09:45;10.95;;;8.00;;
84284;SDS011;74441;49.470;11.032;2024-01-30T13:12:11;9.43;;;7.50;;
84284;SDS011;74441;49.470;11.032;2024-01-30T13:14:36;10.40;;;7.68;;
84284;SDS011;74441;49.470;11.032;2024-01-30T13:17:01;11.60;;;7.80;;
84284;SDS011;74441;49.470;11.032;2024-01-30T13:19:27;12.80;;;7.68;;
84284;SDS011;74441;49.470;11.032;2024-01-30T13:21:52;10.48;;;8.00;;
84284;SDS011;74441;49.470;11.032;2024-01-30T13:24:17;10.80;;;7.50;;
84284;SDS011;74441;49.470;11.032;2024-01-30T13:26:46;10.13;;;7.55;;
84284;SDS011;74441;49.470;11.032;2024-01-30T13:29:12;11.82;;;7.70;;
84284;SDS011;74441;49.470;11.032;2024-01-30T13:31:37;9.90;;;7.40;;
84284;SDS011;74441;49.470;11.032;2024-01-30T13:34:04;9.55;;;7.45;;
84284;SDS011;74441;49.470;11.032;2024-01-30T13:36:31;8.98;;;7.07;;
84284;SDS011;74441;49.470;11.032;2024-01-30T13:38:56;12.57;;;8.30;;
84284;SDS011;74441;49.470;11.032;2024-01-30T13:41:22;11.50;;;8.02;;
84284;SDS011;74441;49.470;11.032;2024-01-30T13:43:47;11.43;;;8.02;;
84284;SDS011;74441;49.470;11.032;2024-01-30T13:46:13;11.57;;;8.35;;
84284;SDS011;74441;49.470;11.032;2024-01-30T13:48:39;9.77;;;8.30;;
84284;SDS011;74441;49.470;11.032;2024-01-30T13:51:04;10.60;;;7.83;;
84284;SDS011;74441;49.470;11.032;2024-01-30T13:53:29;10.85;;;7.88;;
84284;SDS011;74441;49.470;11.032;2024-01-30T13:55:55;11.48;;;7.85;;
84284;SDS011;74441;49.470;11.032;2024-01-30T13:58:20;10.23;;;7.80;;
84284;SDS011;74441;49.470;11.032;2024-01-30T14:00:45;12.63;;;8.52;;
84284;SDS011;74441;49.470;11.032;2024-01-30T14:03:11;10.38;;;8.27;;
84284;SDS011;74441;49.470;11.032;2024-01-30T14:05:36;10.57;;;7.47;;
84284;SDS011;74441;49.470;11.032;2024-01-30T14:08:02;10.75;;;8.27;;
84284;SDS011;74441;49.470;11.032;2024-01-30T14:10:27;10.75;;;8.40;;
84284;SDS011;74441;49.470;11.032;2024-01-30T14:12:53;10.85;;;8.15;;
84284;SDS011;74441;49.470;11.032;2024-01-30T14:15:18;9.60;;;7.68;;
84284;SDS011;74441;49.470;11.032;2024-01-30T14:17:44;11.23;;;8.32;;
84284;SDS011;74441;49.470;11.032;2024-01-30T14:20:10;12.30;;;8.25;;
84284;SDS011;74441;49.470;11.032;2024-01-30T14:22:35;12.15;;;8.50;;
84284;SDS011;74441;49.470;11.032;2024-01-30T14:25:01;11.65;;;8.55;;
84284;SDS011;74441;49.470;11.032;2024-01-30T14:27:28;11.77;;;8.65;;